Terminal Aerodrome Forecast
Issued by NWS

Home | Current Version | Previous Version | Graphics & Text | Print | Product List | Glossary On
Versions: 1 2 3 4 5 6 7 8 9 10 11 12 13 14 15 16 17
000
FTUS43 KLSX 211739
TAFUIN
TAF
KUIN 211739Z 2118/2218 18009KT P6SM SCT025 OVC040
     FM220300 16011G17KT P6SM VCSH OVC015
     FM220600 16015KT 3SM SHRA VCTS OVC010CB
     FM221000 17012KT 3SM BR VCSH OVC010
     FM221300 18009KT P6SM SCT250
     FM221600 19014G22KT P6SM SCT250=

USA.gov is the U.S. government's official web portal to all federal, state and local government web resources and services.